sensor_id;sensor_type;location;lat;lon;timestamp;pressure;altitude;pressure_sealevel;temperature;humidity
39267;BME280;24967;51.154;13.812;2022-10-23T00:01:33;99705.63;;;13.89;81.32
39267;BME280;24967;51.154;13.812;2022-10-23T00:04:03;99705.63;;;13.97;81.98
39267;BME280;24967;51.154;13.812;2022-10-23T00:06:32;99714.97;;;13.68;83.17
39267;BME280;24967;51.154;13.812;2022-10-23T00:08:59;99718.13;;;13.64;84.18
39267;BME280;24967;51.154;13.812;2022-10-23T00:11:27;99706.78;;;13.54;85.09
39267;BME280;24967;51.154;13.812;2022-10-23T00:13:57;99705.28;;;13.59;85.27
39267;BME280;24967;51.154;13.812;2022-10-23T00:16:24;99708.47;;;13.71;84.71
39267;BME280;24967;51.154;13.812;2022-10-23T00:18:51;99706.94;;;13.77;84.63
39267;BME280;24967;51.154;13.812;2022-10-23T00:21:19;99706.78;;;13.70;85.26
39267;BME280;24967;51.154;13.812;2022-10-23T00:23:46;99711.97;;;13.80;84.97
39267;BME280;24967;51.154;13.812;2022-10-23T00:26:13;99710.81;;;13.74;85.46
39267;BME280;24967;51.154;13.812;2022-10-23T00:28:40;99703.63;;;13.74;85.92
39267;BME280;24967;51.154;13.812;2022-10-23T00:31:07;99709.97;;;13.82;85.43
39267;BME280;24967;51.154;13.812;2022-10-23T00:33:34;99706.81;;;13.86;85.18
39267;BME280;24967;51.154;13.812;2022-10-23T00:36:03;99697.97;;;13.86;84.84
39267;BME280;24967;51.154;13.812;2022-10-23T00:38:32;99690.44;;;13.89;84.32
39267;BME280;24967;51.154;13.812;2022-10-23T00:40:58;99691.94;;;13.92;84.27
39267;BME280;24967;51.154;13.812;2022-10-23T00:43:26;99696.09;;;13.94;84.08
39267;BME280;24967;51.154;13.812;2022-10-23T00:45:54;99692.59;;;13.94;83.75
39267;BME280;24967;51.154;13.812;2022-10-23T00:48:21;99694.44;;;13.93;83.59
39267;BME280;24967;51.154;13.812;2022-10-23T00:50:48;99689.91;;;13.94;83.02
39267;BME280;24967;51.154;13.812;2022-10-23T00:53:16;99691.75;;;13.93;83.14
39267;BME280;24967;51.154;13.812;2022-10-23T00:55:46;99688.25;;;13.93;83.06
39267;BME280;24967;51.154;13.812;2022-10-23T00:58:16;99684.25;;;13.89;82.78
39267;BME280;24967;51.154;13.812;2022-10-23T01:00:45;99693.94;;;13.90;82.37
39267;BME280;24967;51.154;13.812;2022-10-23T01:03:13;99693.75;;;13.91;82.15
39267;BME280;24967;51.154;13.812;2022-10-23T01:05:46;99693.44;;;13.86;82.06
39267;BME280;24967;51.154;13.812;2022-10-23T01:08:19;99694.94;;;13.81;81.49
39267;BME280;24967;51.154;13.812;2022-10-23T01:10:53;99689.44;;;13.74;82.06
39267;BME280;24967;51.154;13.812;2022-10-23T01:13:29;99691.44;;;13.72;81.95
39267;BME280;24967;51.154;13.812;2022-10-23T01:16:04;99696.94;;;13.70;81.77
39267;BME280;24967;51.154;13.812;2022-10-23T01:18:38;99699.44;;;13.72;82.00
39267;BME280;24967;51.154;13.812;2022-10-23T01:21:09;99698.78;;;13.70;81.96
39267;BME280;24967;51.154;13.812;2022-10-23T01:24:02;99692.44;;;13.71;81.60
39267;BME280;24967;51.154;13.812;2022-10-23T01:26:43;99697.94;;;13.69;81.13
39267;BME280;24967;51.154;13.812;2022-10-23T01:29:20;99692.94;;;13.66;81.16
39267;BME280;24967;51.154;13.812;2022-10-23T01:31:55;99699.44;;;13.64;80.91
39267;BME280;24967;51.154;13.812;2022-10-23T01:34:28;99697.44;;;13.58;80.64
39267;BME280;24967;51.154;13.812;2022-10-23T01:36:56;99698.25;;;13.58;80.66
39267;BME280;24967;51.154;13.812;2022-10-23T01:39:26;99697.75;;;13.55;80.83
39267;BME280;24967;51.154;13.812;2022-10-23T01:41:56;99693.59;;;13.52;80.66
39267;BME280;24967;51.154;13.812;2022-10-23T01:44:28;99690.91;;;13.52;80.86
39267;BME280;24967;51.154;13.812;2022-10-23T01:46:58;99690.94;;;13.44;81.12
39267;BME280;24967;51.154;13.812;2022-10-23T01:49:26;99694.59;;;13.43;81.05
39267;BME280;24967;51.154;13.812;2022-10-23T01:51:56;99693.09;;;13.32;81.35
39267;BME280;24967;51.154;13.812;2022-10-23T01:54:28;99695.75;;;13.32;81.85
39267;BME280;24967;51.154;13.812;2022-10-23T01:56:57;99701.03;;;13.24;81.78
39267;BME280;24967;51.154;13.812;2022-10-23T01:59:28;99699.06;;;13.26;82.03
39267;BME280;24967;51.154;13.812;2022-10-23T02:01:57;99707.72;;;13.20;82.37
39267;BME280;24967;51.154;13.812;2022-10-23T02:04:30;99701.38;;;13.21;83.52
39267;BME280;24967;51.154;13.812;2022-10-23T02:06:59;99693.75;;;13.26;83.19
39267;BME280;24967;51.154;13.812;2022-10-23T02:09:26;99693.34;;;13.21;83.25
39267;BME280;24967;51.154;13.812;2022-10-23T02:11:56;99694.38;;;13.20;83.64
39267;BME280;24967;51.154;13.812;2022-10-23T02:14:35;99691.19;;;13.24;83.83
39267;BME280;24967;51.154;13.812;2022-10-23T02:17:08;99695.34;;;13.19;84.41
39267;BME280;24967;51.154;13.812;2022-10-23T02:19:46;99687.66;;;13.16;84.09
39267;BME280;24967;51.154;13.812;2022-10-23T02:22:20;99689.16;;;13.18;84.11
39267;BME280;24967;51.154;13.812;2022-10-23T02:24:51;99698.69;;;13.21;83.56
39267;BME280;24967;51.154;13.812;2022-10-23T02:27:24;99686.66;;;13.09;83.71
39267;BME280;24967;51.154;13.812;2022-10-23T02:29:56;99676.81;;;13.09;84.02
39267;BME280;24967;51.154;13.812;2022-10-23T02:32:28;99680.31;;;13.01;83.61
39267;BME280;24967;51.154;13.812;2022-10-23T02:34:55;99672.81;;;13.05;84.03
39267;BME280;24967;51.154;13.812;2022-10-23T02:37:22;99674.97;;;13.01;83.20
39267;BME280;24967;51.154;13.812;2022-10-23T02:39:50;99668.78;;;12.93;83.35
39267;BME280;24967;51.154;13.812;2022-10-23T02:42:21;99678.06;;;12.89;82.56
39267;BME280;24967;51.154;13.812;2022-10-23T02:44:57;99675.63;;;12.95;82.69
39267;BME280;24967;51.154;13.812;2022-10-23T02:47:39;99675.94;;;12.92;82.45
39267;BME280;24967;51.154;13.812;2022-10-23T02:50:16;99678.56;;;12.84;82.37
39267;BME280;24967;51.154;13.812;2022-10-23T02:52:50;99674.09;;;12.93;82.06
39267;BME280;24967;51.154;13.812;2022-10-23T02:55:27;99680.94;;;12.87;82.43
39267;BME280;24967;51.154;13.812;2022-10-23T02:58:02;99670.41;;;12.86;82.78
39267;BME280;24967;51.154;13.812;2022-10-23T03:00:36;99671.09;;;12.88;82.55
39267;BME280;24967;51.154;13.812;2022-10-23T03:03:09;99667.94;;;12.92;82.03
39267;BME280;24967;51.154;13.812;2022-10-23T03:05:38;99663.91;;;12.88;82.62
39267;BME280;24967;51.154;13.812;2022-10-23T03:08:08;99672.59;;;12.90;82.44
39267;BME280;24967;51.154;13.812;2022-10-23T03:10:35;99673.28;;;12.92;82.35
39267;BME280;24967;51.154;13.812;2022-10-23T03:13:02;99674.25;;;12.91;82.45
39267;BME280;24967;51.154;13.812;2022-10-23T03:15:29;99665.09;;;12.94;82.39
39267;BME280;24967;51.154;13.812;2022-10-23T03:17:57;99664.25;;;12.93;82.41
39267;BME280;24967;51.154;13.812;2022-10-23T03:20:23;99671.75;;;12.98;82.08
39267;BME280;24967;51.154;13.812;2022-10-23T03:22:56;99674.28;;;12.99;81.59
39267;BME280;24967;51.154;13.812;2022-10-23T03:25:23;99675.63;;;12.95;81.38
39267;BME280;24967;51.154;13.812;2022-10-23T03:27:49;99673.44;;;12.91;81.94
39267;BME280;24967;51.154;13.812;2022-10-23T03:30:16;99682.25;;;12.91;81.82
39267;BME280;24967;51.154;13.812;2022-10-23T03:32:43;99680.59;;;12.90;81.66
39267;BME280;24967;51.154;13.812;2022-10-23T03:35:11;99686.09;;;12.89;81.27
39267;BME280;24967;51.154;13.812;2022-10-23T03:37:38;99689.94;;;12.86;81.25
39267;BME280;24967;51.154;13.812;2022-10-23T03:40:05;99682.56;;;12.80;81.45
39267;BME280;24967;51.154;13.812;2022-10-23T03:42:32;99673.22;;;12.76;81.10
39267;BME280;24967;51.154;13.812;2022-10-23T03:44:59;99674.91;;;12.77;81.45
39267;BME280;24967;51.154;13.812;2022-10-23T03:47:25;99677.88;;;12.74;81.13
39267;BME280;24967;51.154;13.812;2022-10-23T03:49:54;99674.34;;;12.73;81.42
39267;BME280;24967;51.154;13.812;2022-10-23T03:52:22;99677.88;;;12.74;81.57
39267;BME280;24967;51.154;13.812;2022-10-23T03:54:49;99683.50;;;12.63;82.06
39267;BME280;24967;51.154;13.812;2022-10-23T03:57:15;99675.50;;;12.63;81.65
39267;BME280;24967;51.154;13.812;2022-10-23T03:59:42;99668.66;;;12.60;81.81
39267;BME280;24967;51.154;13.812;2022-10-23T04:02:09;99674.44;;;12.47;81.92
39267;BME280;24967;51.154;13.812;2022-10-23T04:04:36;99672.75;;;12.46;82.07
39267;BME280;24967;51.154;13.812;2022-10-23T04:07:02;99674.44;;;12.47;82.04
39267;BME280;24967;51.154;13.812;2022-10-23T04:09:30;99677.94;;;12.48;81.83
39267;BME280;24967;51.154;13.812;2022-10-23T04:11:57;99681.44;;;12.48;81.97
39267;BME280;24967;51.154;13.812;2022-10-23T04:14:24;99680.28;;;12.51;81.48
39267;BME280;24967;51.154;13.812;2022-10-23T04:16:51;99671.59;;;12.49;81.45
39267;BME280;24967;51.154;13.812;2022-10-23T04:19:18;99672.41;;;12.49;81.12
39267;BME280;24967;51.154;13.812;2022-10-23T04:21:44;99671.59;;;12.49;81.07
39267;BME280;24967;51.154;13.812;2022-10-23T04:24:11;99675.22;;;12.40;80.58
39267;BME280;24967;51.154;13.812;2022-10-23T04:26:39;99675.38;;;12.38;80.91
39267;BME280;24967;51.154;13.812;2022-10-23T04:29:06;99673.19;;;12.33;80.56
39267;BME280;24967;51.154;13.812;2022-10-23T04:31:33;99666.50;;;12.29;80.74
39267;BME280;24967;51.154;13.812;2022-10-23T04:33:59;99661.81;;;12.23;80.14
39267;BME280;24967;51.154;13.812;2022-10-23T04:36:26;99661.63;;;12.25;80.34
39267;BME280;24967;51.154;13.812;2022-10-23T04:38:52;99656.44;;;12.15;80.83
39267;BME280;24967;51.154;13.812;2022-10-23T04:41:19;99670.75;;;12.14;81.03
39267;BME280;24967;51.154;13.812;2022-10-23T04:43:47;99673.41;;;12.14;81.04
39267;BME280;24967;51.154;13.812;2022-10-23T04:46:14;99670.91;;;12.12;81.19
39267;BME280;24967;51.154;13.812;2022-10-23T04:48:40;99673.88;;;12.09;81.69
39267;BME280;24967;51.154;13.812;2022-10-23T04:51:08;99660.25;;;12.12;81.31
39267;BME280;24967;51.154;13.812;2022-10-23T04:53:35;99660.25;;;12.12;81.33
39267;BME280;24967;51.154;13.812;2022-10-23T04:56:03;99667.91;;;12.15;81.28
39267;BME280;24967;51.154;13.812;2022-10-23T04:58:30;99676.91;;;12.14;80.82
39267;BME280;24967;51.154;13.812;2022-10-23T05:00:58;99679.59;;;12.14;80.84
39267;BME280;24967;51.154;13.812;2022-10-23T05:03:25;99670.25;;;12.10;80.64
39267;BME280;24967;51.154;13.812;2022-10-23T05:05:53;99667.56;;;12.10;80.38
39267;BME280;24967;51.154;13.812;2022-10-23T05:08:20;99666.56;;;12.11;80.03
39267;BME280;24967;51.154;13.812;2022-10-23T05:10:48;99670.88;;;12.04;80.13
39267;BME280;24967;51.154;13.812;2022-10-23T05:13:15;99676.28;;;11.95;80.58
39267;BME280;24967;51.154;13.812;2022-10-23T05:15:44;99670.28;;;11.93;80.69
39267;BME280;24967;51.154;13.812;2022-10-23T05:18:16;99670.13;;;11.94;80.79
39267;BME280;24967;51.154;13.812;2022-10-23T05:20:44;99674.31;;;11.97;80.70
39267;BME280;24967;51.154;13.812;2022-10-23T05:23:15;99667.81;;;11.99;80.45
39267;BME280;24967;51.154;13.812;2022-10-23T05:25:43;99666.75;;;11.92;80.11
39267;BME280;24967;51.154;13.812;2022-10-23T05:28:10;99669.44;;;11.92;80.05
39267;BME280;24967;51.154;13.812;2022-10-23T05:30:37;99668.59;;;11.91;80.03
39267;BME280;24967;51.154;13.812;2022-10-23T05:33:04;99673.41;;;11.88;80.60
39267;BME280;24967;51.154;13.812;2022-10-23T05:35:32;99678.19;;;11.84;80.51
39267;BME280;24967;51.154;13.812;2022-10-23T05:38:00;99679.19;;;11.83;80.85
39267;BME280;24967;51.154;13.812;2022-10-23T05:40:27;99672.16;;;11.82;81.03
39267;BME280;24967;51.154;13.812;2022-10-23T05:42:54;99672.47;;;11.79;80.94
39267;BME280;24967;51.154;13.812;2022-10-23T05:45:21;99668.66;;;11.82;80.70
39267;BME280;24967;51.154;13.812;2022-10-23T05:47:47;99663.50;;;11.80;80.92
39267;BME280;24967;51.154;13.812;2022-10-23T05:50:14;99666.84;;;11.82;80.88
39267;BME280;24967;51.154;13.812;2022-10-23T05:52:44;99659.97;;;11.80;80.97
39267;BME280;24967;51.154;13.812;2022-10-23T05:55:11;99660.28;;;11.77;81.40
39267;BME280;24967;51.154;13.812;2022-10-23T05:57:38;99663.75;;;11.69;81.70
39267;BME280;24967;51.154;13.812;2022-10-23T06:00:06;99658.22;;;11.62;82.87
39267;BME280;24967;51.154;13.812;2022-10-23T06:02:32;99653.75;;;11.45;85.12
39267;BME280;24967;51.154;13.812;2022-10-23T06:04:59;99663.59;;;11.53;86.37
39267;BME280;24967;51.154;13.812;2022-10-23T06:07:27;99663.28;;;11.56;86.90
39267;BME280;24967;51.154;13.812;2022-10-23T06:09:55;99656.91;;;11.66;86.59
39267;BME280;24967;51.154;13.812;2022-10-23T06:12:22;99671.34;;;11.64;86.98
39267;BME280;24967;51.154;13.812;2022-10-23T06:14:48;99671.75;;;11.69;87.25
39267;BME280;24967;51.154;13.812;2022-10-23T06:17:15;99670.22;;;11.66;87.97
39267;BME280;24967;51.154;13.812;2022-10-23T06:19:43;99670.44;;;11.73;87.70
39267;BME280;24967;51.154;13.812;2022-10-23T06:22:10;99668.47;;;11.75;88.08
39267;BME280;24967;51.154;13.812;2022-10-23T06:24:37;99670.59;;;11.72;88.43
39267;BME280;24967;51.154;13.812;2022-10-23T06:27:05;99667.00;;;11.81;88.54
39267;BME280;24967;51.154;13.812;2022-10-23T06:29:31;99662.50;;;11.81;88.08
39267;BME280;24967;51.154;13.812;2022-10-23T06:31:58;99673.09;;;11.91;88.19
39267;BME280;24967;51.154;13.812;2022-10-23T06:34:24;99675.13;;;11.97;87.98
39267;BME280;24967;51.154;13.812;2022-10-23T06:36:51;99679.19;;;12.01;88.13
39267;BME280;24967;51.154;13.812;2022-10-23T06:39:18;99672.34;;;12.07;87.93
39267;BME280;24967;51.154;13.812;2022-10-23T06:41:45;99676.50;;;12.01;88.81
39267;BME280;24967;51.154;13.812;2022-10-23T06:44:13;99675.19;;;12.05;89.31
39267;BME280;24967;51.154;13.812;2022-10-23T06:46:40;99686.88;;;12.12;89.03
39267;BME280;24967;51.154;13.812;2022-10-23T06:49:06;99685.28;;;12.20;89.54
39267;BME280;24967;51.154;13.812;2022-10-23T06:51:33;99695.06;;;12.11;90.46
39267;BME280;24967;51.154;13.812;2022-10-23T06:54:00;99687.31;;;12.26;90.18
39267;BME280;24967;51.154;13.812;2022-10-23T06:56:26;99692.47;;;12.27;90.43
39267;BME280;24967;51.154;13.812;2022-10-23T06:58:54;99697.97;;;12.26;91.36
39267;BME280;24967;51.154;13.812;2022-10-23T07:01:23;99688.41;;;12.41;90.90
39267;BME280;24967;51.154;13.812;2022-10-23T07:03:49;99690.38;;;12.39;91.53
39267;BME280;24967;51.154;13.812;2022-10-23T07:06:16;99685.22;;;12.37;92.61
39267;BME280;24967;51.154;13.812;2022-10-23T07:08:43;99688.00;;;12.62;91.64
39267;BME280;24967;51.154;13.812;2022-10-23T07:11:10;99685.75;;;12.49;93.11
39267;BME280;24967;51.154;13.812;2022-10-23T07:13:38;99686.63;;;12.50;93.98
39267;BME280;24967;51.154;13.812;2022-10-23T07:16:10;99691.66;;;12.61;93.84
39267;BME280;24967;51.154;13.812;2022-10-23T07:18:38;99687.63;;;12.57;94.43
39267;BME280;24967;51.154;13.812;2022-10-23T07:21:05;99683.00;;;12.67;94.36
39267;BME280;24967;51.154;13.812;2022-10-23T07:23:32;99694.19;;;12.71;94.78
39267;BME280;24967;51.154;13.812;2022-10-23T07:26:02;99690.53;;;12.72;95.57
39267;BME280;24967;51.154;13.812;2022-10-23T07:28:29;99697.72;;;12.71;96.03
39267;BME280;24967;51.154;13.812;2022-10-23T07:30:56;99693.56;;;12.77;96.58
39267;BME280;24967;51.154;13.812;2022-10-23T07:33:23;99691.41;;;12.80;96.65
39267;BME280;24967;51.154;13.812;2022-10-23T07:35:51;99685.09;;;12.98;96.25
39267;BME280;24967;51.154;13.812;2022-10-23T07:38:18;99686.00;;;13.15;95.89
39267;BME280;24967;51.154;13.812;2022-10-23T07:40:45;99691.72;;;13.28;94.75
39267;BME280;24967;51.154;13.812;2022-10-23T07:43:11;99691.75;;;13.36;94.61
39267;BME280;24967;51.154;13.812;2022-10-23T07:45:38;99692.75;;;13.35;94.69
39267;BME280;24967;51.154;13.812;2022-10-23T07:48:04;99688.91;;;13.46;94.43
39267;BME280;24967;51.154;13.812;2022-10-23T07:50:31;99686.09;;;13.47;94.76
39267;BME280;24967;51.154;13.812;2022-10-23T07:52:59;99684.56;;;13.61;95.17
39267;BME280;24967;51.154;13.812;2022-10-23T07:55:26;99674.06;;;13.76;94.97
39267;BME280;24967;51.154;13.812;2022-10-23T07:57:52;99673.22;;;13.84;95.09
39267;BME280;24967;51.154;13.812;2022-10-23T08:00:19;99682.91;;;13.85;94.73
39267;BME280;24967;51.154;13.812;2022-10-23T08:02:46;99666.34;;;13.97;94.88
39267;BME280;24967;51.154;13.812;2022-10-23T08:05:13;99673.72;;;13.95;94.62
39267;BME280;24967;51.154;13.812;2022-10-23T08:07:40;99675.88;;;14.08;95.07
39267;BME280;24967;51.154;13.812;2022-10-23T08:10:08;99684.91;;;14.07;93.97
39267;BME280;24967;51.154;13.812;2022-10-23T08:12:36;99671.16;;;14.18;93.82
39267;BME280;24967;51.154;13.812;2022-10-23T08:15:03;99678.47;;;14.41;93.12
39267;BME280;24967;51.154;13.812;2022-10-23T08:17:30;99679.28;;;14.58;92.53
39267;BME280;24967;51.154;13.812;2022-10-23T08:19:56;99687.59;;;14.71;92.19
39267;BME280;24967;51.154;13.812;2022-10-23T08:22:23;99677.69;;;14.80;91.02
39267;BME280;24967;51.154;13.812;2022-10-23T08:24:49;99683.47;;;14.92;89.97
39267;BME280;24967;51.154;13.812;2022-10-23T08:27:17;99679.59;;;14.94;88.99
39267;BME280;24967;51.154;13.812;2022-10-23T08:29:44;99684.41;;;15.07;89.54
39267;BME280;24967;51.154;13.812;2022-10-23T08:32:10;99672.69;;;15.08;89.00
39267;BME280;24967;51.154;13.812;2022-10-23T08:34:37;99674.81;;;15.12;88.72
39267;BME280;24967;51.154;13.812;2022-10-23T08:37:04;99671.72;;;15.01;87.34
39267;BME280;24967;51.154;13.812;2022-10-23T08:39:30;99672.72;;;15.00;87.58
39267;BME280;24967;51.154;13.812;2022-10-23T08:41:57;99669.97;;;15.16;88.17
39267;BME280;24967;51.154;13.812;2022-10-23T08:44:29;99662.03;;;15.46;88.13
39267;BME280;24967;51.154;13.812;2022-10-23T08:47:01;99669.78;;;15.64;88.11
39267;BME280;24967;51.154;13.812;2022-10-23T08:49:36;99661.19;;;15.76;87.48
39267;BME280;24967;51.154;13.812;2022-10-23T08:52:11;99657.03;;;15.89;87.30
39267;BME280;24967;51.154;13.812;2022-10-23T08:54:51;99669.72;;;15.95;87.04
39267;BME280;24967;51.154;13.812;2022-10-23T08:57:21;99661.84;;;15.93;85.93
39267;BME280;24967;51.154;13.812;2022-10-23T08:59:54;99663.66;;;16.16;86.23
39267;BME280;24967;51.154;13.812;2022-10-23T09:02:25;99665.56;;;16.37;85.67
39267;BME280;24967;51.154;13.812;2022-10-23T09:04:54;99667.34;;;16.44;84.30
39267;BME280;24967;51.154;13.812;2022-10-23T09:07:31;99664.50;;;16.46;82.12
39267;BME280;24967;51.154;13.812;2022-10-23T09:10:12;99670.19;;;16.72;82.69
39267;BME280;24967;51.154;13.812;2022-10-23T09:12:41;99665.59;;;16.81;83.11
39267;BME280;24967;51.154;13.812;2022-10-23T09:15:19;99651.41;;;16.72;80.28
39267;BME280;24967;51.154;13.812;2022-10-23T09:17:54;99649.16;;;16.91;81.74
39267;BME280;24967;51.154;13.812;2022-10-23T09:20:26;99647.78;;;16.95;81.45
39267;BME280;24967;51.154;13.812;2022-10-23T09:22:56;99647.81;;;17.16;82.24
39267;BME280;24967;51.154;13.812;2022-10-23T09:25:26;99643.22;;;17.32;82.92
39267;BME280;24967;51.154;13.812;2022-10-23T09:27:55;99631.56;;;17.46;81.50
39267;BME280;24967;51.154;13.812;2022-10-23T09:30:30;99626.31;;;17.38;78.46
39267;BME280;24967;51.154;13.812;2022-10-23T09:32:58;99623.13;;;17.49;79.50
39267;BME280;24967;51.154;13.812;2022-10-23T09:35:27;99627.50;;;17.78;79.41
39267;BME280;24967;51.154;13.812;2022-10-23T09:37:55;99636.28;;;17.66;77.71
39267;BME280;24967;51.154;13.812;2022-10-23T09:40:28;99641.69;;;17.94;79.25
39267;BME280;24967;51.154;13.812;2022-10-23T09:42:59;99642.63;;;18.07;77.52
39267;BME280;24967;51.154;13.812;2022-10-23T09:45:30;99639.91;;;18.01;76.03
39267;BME280;24967;51.154;13.812;2022-10-23T09:50:49;99650.38;;;17.89;76.89
39267;BME280;24967;51.154;13.812;2022-10-23T09:53:26;99649.22;;;18.05;76.54
39267;BME280;24967;51.154;13.812;2022-10-23T09:55:57;99643.16;;;17.96;75.60
39267;BME280;24967;51.154;13.812;2022-10-23T09:58:29;99638.56;;;17.90;77.65
39267;BME280;24967;51.154;13.812;2022-10-23T10:00:58;99645.28;;;18.01;76.77
39267;BME280;24967;51.154;13.812;2022-10-23T10:03:25;99642.19;;;18.04;77.23
39267;BME280;24967;51.154;13.812;2022-10-23T10:05:57;99645.66;;;18.26;76.92
39267;BME280;24967;51.154;13.812;2022-10-23T10:08:31;99643.66;;;18.41;76.61
39267;BME280;24967;51.154;13.812;2022-10-23T10:11:02;99635.59;;;18.41;76.30
39267;BME280;24967;51.154;13.812;2022-10-23T10:13:53;99633.28;;;18.38;75.56
39267;BME280;24967;51.154;13.812;2022-10-23T10:16:32;99633.97;;;18.47;76.62
39267;BME280;24967;51.154;13.812;2022-10-23T10:19:06;99628.06;;;18.71;75.89
39267;BME280;24967;51.154;13.812;2022-10-23T10:21:41;99624.63;;;18.91;75.66
39267;BME280;24967;51.154;13.812;2022-10-23T10:24:16;99620.75;;;19.07;74.39
39267;BME280;24967;51.154;13.812;2022-10-23T10:26:51;99621.19;;;19.30;73.47
39267;BME280;24967;51.154;13.812;2022-10-23T10:29:26;99608.16;;;19.47;71.98
39267;BME280;24967;51.154;13.812;2022-10-23T10:32:05;99611.25;;;19.57;71.13
39267;BME280;24967;51.154;13.812;2022-10-23T10:34:40;99611.09;;;19.65;70.41
39267;BME280;24967;51.154;13.812;2022-10-23T10:37:18;99608.78;;;19.56;69.24
39267;BME280;24967;51.154;13.812;2022-10-23T10:39:49;99606.91;;;19.63;70.31
39267;BME280;24967;51.154;13.812;2022-10-23T10:42:38;99605.88;;;19.44;68.86
39267;BME280;24967;51.154;13.812;2022-10-23T10:45:17;99610.00;;;19.27;69.34
39267;BME280;24967;51.154;13.812;2022-10-23T10:47:58;99599.22;;;19.20;67.20
39267;BME280;24967;51.154;13.812;2022-10-23T10:50:30;99598.78;;;19.10;69.29
39267;BME280;24967;51.154;13.812;2022-10-23T10:53:08;99602.31;;;19.17;69.35
39267;BME280;24967;51.154;13.812;2022-10-23T10:55:42;99599.63;;;19.30;70.18
39267;BME280;24967;51.154;13.812;2022-10-23T10:58:15;99595.28;;;19.42;69.10
39267;BME280;24967;51.154;13.812;2022-10-23T11:00:46;99594.06;;;19.52;67.63
39267;BME280;24967;51.154;13.812;2022-10-23T11:03:26;99590.13;;;19.41;67.58
39267;BME280;24967;51.154;13.812;2022-10-23T11:05:56;99592.41;;;19.37;68.76
39267;BME280;24967;51.154;13.812;2022-10-23T11:08:31;99587.00;;;19.57;67.50
39267;BME280;24967;51.154;13.812;2022-10-23T11:11:05;99572.91;;;19.42;67.23
39267;BME280;24967;51.154;13.812;2022-10-23T11:13:35;99565.44;;;19.44;68.30
39267;BME280;24967;51.154;13.812;2022-10-23T11:16:08;99566.47;;;19.50;67.62
39267;BME280;24967;51.154;13.812;2022-10-23T11:18:40;99555.47;;;19.51;67.74
39267;BME280;24967;51.154;13.812;2022-10-23T11:21:20;99551.34;;;19.55;65.89
39267;BME280;24967;51.154;13.812;2022-10-23T11:26:52;99552.16;;;19.62;66.33
39267;BME280;24967;51.154;13.812;2022-10-23T11:29:50;99549.25;;;19.17;67.29
39267;BME280;24967;51.154;13.812;2022-10-23T11:32:33;99544.28;;;19.21;68.54
39267;BME280;24967;51.154;13.812;2022-10-23T11:35:12;99542.81;;;19.05;67.20
39267;BME280;24967;51.154;13.812;2022-10-23T11:37:41;99540.56;;;19.22;68.86
39267;BME280;24967;51.154;13.812;2022-10-23T11:40:21;99539.50;;;19.36;68.58
39267;BME280;24967;51.154;13.812;2022-10-23T11:42:49;99534.75;;;19.32;68.09
39267;BME280;24967;51.154;13.812;2022-10-23T11:45:30;99528.31;;;19.39;67.93
39267;BME280;24967;51.154;13.812;2022-10-23T11:47:58;99535.56;;;19.39;68.42
39267;BME280;24967;51.154;13.812;2022-10-23T11:50:32;99526.69;;;19.52;68.02
39267;BME280;24967;51.154;13.812;2022-10-23T11:53:04;99530.00;;;19.67;67.88
39267;BME280;24967;51.154;13.812;2022-10-23T11:55:36;99520.63;;;19.70;67.38
39267;BME280;24967;51.154;13.812;2022-10-23T11:58:24;99522.25;;;19.90;66.90
39267;BME280;24967;51.154;13.812;2022-10-23T12:00:59;99514.75;;;19.99;66.45
39267;BME280;24967;51.154;13.812;2022-10-23T12:03:32;99507.91;;;20.03;65.99
39267;BME280;24967;51.154;13.812;2022-10-23T12:06:17;99508.50;;;20.19;66.17
39267;BME280;24967;51.154;13.812;2022-10-23T12:08:49;99497.69;;;20.19;65.00
39267;BME280;24967;51.154;13.812;2022-10-23T12:11:40;99500.66;;;20.04;64.49
39267;BME280;24967;51.154;13.812;2022-10-23T12:14:29;99503.69;;;20.21;64.43
39267;BME280;24967;51.154;13.812;2022-10-23T12:16:57;99494.44;;;19.90;64.20
39267;BME280;24967;51.154;13.812;2022-10-23T12:19:26;99495.25;;;20.04;64.71
39267;BME280;24967;51.154;13.812;2022-10-23T12:21:57;99496.31;;;19.96;64.72
39267;BME280;24967;51.154;13.812;2022-10-23T12:24:40;99487.81;;;19.93;64.65
39267;BME280;24967;51.154;13.812;2022-10-23T12:27:27;99485.75;;;19.95;63.70
39267;BME280;24967;51.154;13.812;2022-10-23T12:30:02;99478.91;;;19.79;63.38
39267;BME280;24967;51.154;13.812;2022-10-23T12:33:01;99475.44;;;19.45;64.39
39267;BME280;24967;51.154;13.812;2022-10-23T12:35:52;99475.03;;;19.35;64.42
39267;BME280;24967;51.154;13.812;2022-10-23T12:38:24;99478.38;;;19.37;65.42
39267;BME280;24967;51.154;13.812;2022-10-23T12:40:54;99471.97;;;19.25;66.03
39267;BME280;24967;51.154;13.812;2022-10-23T12:43:26;99470.72;;;19.14;66.02
39267;BME280;24967;51.154;13.812;2022-10-23T12:46:02;99463.06;;;18.97;67.02
39267;BME280;24967;51.154;13.812;2022-10-23T12:48:31;99457.25;;;19.07;67.22
39267;BME280;24967;51.154;13.812;2022-10-23T12:50:58;99443.97;;;18.86;67.56
39267;BME280;24967;51.154;13.812;2022-10-23T12:53:26;99449.53;;;18.64;67.04
39267;BME280;24967;51.154;13.812;2022-10-23T12:55:56;99435.66;;;18.67;67.80
39267;BME280;24967;51.154;13.812;2022-10-23T12:58:24;99442.75;;;18.88;68.02
39267;BME280;24967;51.154;13.812;2022-10-23T13:00:53;99444.41;;;19.09;67.76
39267;BME280;24967;51.154;13.812;2022-10-23T13:03:21;99444.59;;;19.01;67.65
39267;BME280;24967;51.154;13.812;2022-10-23T13:05:50;99430.47;;;18.72;68.24
39267;BME280;24967;51.154;13.812;2022-10-23T13:08:18;99437.47;;;18.34;68.89
39267;BME280;24967;51.154;13.812;2022-10-23T13:10:47;99426.88;;;18.25;68.72
39267;BME280;24967;51.154;13.812;2022-10-23T13:13:19;99421.91;;;18.22;69.33